sensor_id;sensor_type;location;lat;lon;timestamp;pressure;altitude;pressure_sealevel;temperature;humidity
58243;BME280;50118;53.232;8.252;2024-01-16T00:00:22;100196.31;;;-0.99;100.00
58243;BME280;50118;53.232;8.252;2024-01-16T00:02:48;100196.16;;;-0.96;100.00
58243;BME280;50118;53.232;8.252;2024-01-16T00:05:13;100194.72;;;-0.86;100.00
58243;BME280;50118;53.232;8.252;2024-01-16T00:07:39;100193.97;;;-0.88;100.00
58243;BME280;50118;53.232;8.252;2024-01-16T00:10:07;100201.06;;;-0.90;100.00
58243;BME280;50118;53.232;8.252;2024-01-16T00:12:33;100199.88;;;-1.00;100.00
58243;BME280;50118;53.232;8.252;2024-01-16T00:14:58;100205.72;;;-0.95;100.00
58243;BME280;50118;53.232;8.252;2024-01-16T00:17:24;100202.66;;;-1.03;100.00
58243;BME280;50118;53.232;8.252;2024-01-16T00:19:49;100213.38;;;-1.08;100.00
58243;BME280;50118;53.232;8.252;2024-01-16T00:22:15;100204.59;;;-1.07;100.00
58243;BME280;50118;53.232;8.252;2024-01-16T00:24:40;100203.06;;;-1.11;100.00
58243;BME280;50118;53.232;8.252;2024-01-16T00:27:06;100207.78;;;-1.18;100.00
58243;BME280;50118;53.232;8.252;2024-01-16T00:29:31;100220.09;;;-1.20;100.00
58243;BME280;50118;53.232;8.252;2024-01-16T00:31:56;100227.50;;;-1.28;100.00
58243;BME280;50118;53.232;8.252;2024-01-16T00:34:22;100223.31;;;-1.30;100.00
58243;BME280;50118;53.232;8.252;2024-01-16T00:36:47;100224.63;;;-1.39;100.00
58243;BME280;50118;53.232;8.252;2024-01-16T00:39:13;100234.03;;;-1.53;100.00
58243;BME280;50118;53.232;8.252;2024-01-16T00:41:39;100232.06;;;-1.65;100.00
58243;BME280;50118;53.232;8.252;2024-01-16T00:44:04;100238.34;;;-1.69;100.00
58243;BME280;50118;53.232;8.252;2024-01-16T00:46:30;100236.69;;;-1.70;100.00
58243;BME280;50118;53.232;8.252;2024-01-16T00:48:56;100238.34;;;-1.69;100.00
58243;BME280;50118;53.232;8.252;2024-01-16T00:51:21;100236.84;;;-1.73;100.00
58243;BME280;50118;53.232;8.252;2024-01-16T00:53:47;100245.97;;;-1.64;100.00
58243;BME280;50118;53.232;8.252;2024-01-16T00:56:12;100255.25;;;-1.59;100.00
58243;BME280;50118;53.232;8.252;2024-01-16T00:58:38;100249.56;;;-1.49;100.00
58243;BME280;50118;53.232;8.252;2024-01-16T01:01:04;100260.69;;;-1.46;100.00
58243;BME280;50118;53.232;8.252;2024-01-16T01:03:29;100260.69;;;-1.46;100.00
58243;BME280;50118;53.232;8.252;2024-01-16T01:05:55;100263.38;;;-1.47;100.00
58243;BME280;50118;53.232;8.252;2024-01-16T01:08:21;100263.31;;;-1.46;100.00
58243;BME280;50118;53.232;8.252;2024-01-16T01:10:46;100266.72;;;-1.61;100.00
58243;BME280;50118;53.232;8.252;2024-01-16T01:13:12;100263.06;;;-1.59;100.00
58243;BME280;50118;53.232;8.252;2024-01-16T01:15:38;100268.63;;;-1.65;100.00
58243;BME280;50118;53.232;8.252;2024-01-16T01:18:03;100267.84;;;-1.67;100.00
58243;BME280;50118;53.232;8.252;2024-01-16T01:20:29;100262.81;;;-1.70;100.00
58243;BME280;50118;53.232;8.252;2024-01-16T01:22:55;100269.84;;;-1.72;100.00
58243;BME280;50118;53.232;8.252;2024-01-16T01:25:20;100272.56;;;-1.74;100.00
58243;BME280;50118;53.232;8.252;2024-01-16T01:27:46;100295.28;;;-1.76;100.00
58243;BME280;50118;53.232;8.252;2024-01-16T01:30:12;100303.66;;;-1.69;100.00
58243;BME280;50118;53.232;8.252;2024-01-16T01:32:38;100306.25;;;-1.69;100.00
58243;BME280;50118;53.232;8.252;2024-01-16T01:35:04;100313.03;;;-1.65;100.00
58243;BME280;50118;53.232;8.252;2024-01-16T01:37:30;100298.75;;;-1.58;100.00
58243;BME280;50118;53.232;8.252;2024-01-16T01:39:56;100302.78;;;-1.52;100.00
58243;BME280;50118;53.232;8.252;2024-01-16T01:42:21;100297.66;;;-1.54;100.00
58243;BME280;50118;53.232;8.252;2024-01-16T01:44:47;100311.03;;;-1.60;100.00
58243;BME280;50118;53.232;8.252;2024-01-16T01:47:13;100307.97;;;-1.68;100.00
58243;BME280;50118;53.232;8.252;2024-01-16T01:49:40;100306.66;;;-1.77;100.00
58243;BME280;50118;53.232;8.252;2024-01-16T01:52:06;100303.91;;;-1.74;100.00
58243;BME280;50118;53.232;8.252;2024-01-16T01:54:35;100313.47;;;-1.74;100.00
58243;BME280;50118;53.232;8.252;2024-01-16T01:57:01;100307.56;;;-1.78;100.00
58243;BME280;50118;53.232;8.252;2024-01-16T01:59:27;100317.19;;;-1.78;100.00
58243;BME280;50118;53.232;8.252;2024-01-16T02:01:54;100316.31;;;-1.79;100.00
58243;BME280;50118;53.232;8.252;2024-01-16T02:04:21;100324.31;;;-1.82;100.00
58243;BME280;50118;53.232;8.252;2024-01-16T02:06:46;100324.06;;;-1.77;100.00
58243;BME280;50118;53.232;8.252;2024-01-16T02:09:14;100313.34;;;-1.71;100.00
58243;BME280;50118;53.232;8.252;2024-01-16T02:11:40;100322.88;;;-1.70;100.00
58243;BME280;50118;53.232;8.252;2024-01-16T02:14:06;100330.53;;;-1.67;100.00
58243;BME280;50118;53.232;8.252;2024-01-16T02:16:38;100331.06;;;-1.78;100.00
58243;BME280;50118;53.232;8.252;2024-01-16T02:19:04;100345.22;;;-1.82;100.00
58243;BME280;50118;53.232;8.252;2024-01-16T02:21:41;100344.41;;;-1.84;100.00
58243;BME280;50118;53.232;8.252;2024-01-16T02:24:10;100354.19;;;-1.88;100.00
58243;BME280;50118;53.232;8.252;2024-01-16T02:26:36;100361.09;;;-1.86;100.00
58243;BME280;50118;53.232;8.252;2024-01-16T02:29:02;100351.63;;;-1.89;100.00
58243;BME280;50118;53.232;8.252;2024-01-16T02:31:30;100349.66;;;-1.84;100.00
58243;BME280;50118;53.232;8.252;2024-01-16T02:33:55;100355.88;;;-1.86;100.00
58243;BME280;50118;53.232;8.252;2024-01-16T02:36:21;100351.56;;;-1.88;100.00
58243;BME280;50118;53.232;8.252;2024-01-16T02:38:46;100363.09;;;-1.92;100.00
58243;BME280;50118;53.232;8.252;2024-01-16T02:41:13;100360.84;;;-1.99;100.00
58243;BME280;50118;53.232;8.252;2024-01-16T02:43:41;100367.34;;;-2.08;100.00
58243;BME280;50118;53.232;8.252;2024-01-16T02:46:07;100359.91;;;-2.16;100.00
58243;BME280;50118;53.232;8.252;2024-01-16T02:48:34;100357.50;;;-2.20;100.00
58243;BME280;50118;53.232;8.252;2024-01-16T02:51:00;100354.00;;;-2.38;100.00
58243;BME280;50118;53.232;8.252;2024-01-16T02:53:25;100355.00;;;-2.41;100.00
58243;BME280;50118;53.232;8.252;2024-01-16T02:55:52;100344.84;;;-2.47;100.00
58243;BME280;50118;53.232;8.252;2024-01-16T02:58:18;100349.41;;;-2.52;100.00
58243;BME280;50118;53.232;8.252;2024-01-16T03:00:43;100359.84;;;-2.52;100.00
58243;BME280;50118;53.232;8.252;2024-01-16T03:03:09;100348.16;;;-2.63;100.00
58243;BME280;50118;53.232;8.252;2024-01-16T03:05:35;100346.25;;;-2.78;100.00
58243;BME280;50118;53.232;8.252;2024-01-16T03:08:01;100349.34;;;-2.89;100.00
58243;BME280;50118;53.232;8.252;2024-01-16T03:10:26;100346.81;;;-2.90;100.00
58243;BME280;50118;53.232;8.252;2024-01-16T03:12:52;100352.44;;;-2.99;100.00
58243;BME280;50118;53.232;8.252;2024-01-16T03:15:18;100347.38;;;-3.03;100.00
58243;BME280;50118;53.232;8.252;2024-01-16T03:17:43;100341.59;;;-2.90;100.00
58243;BME280;50118;53.232;8.252;2024-01-16T03:20:09;100349.69;;;-2.96;100.00
58243;BME280;50118;53.232;8.252;2024-01-16T03:22:35;100340.19;;;-2.97;100.00
58243;BME280;50118;53.232;8.252;2024-01-16T03:25:00;100346.25;;;-2.97;100.00
58243;BME280;50118;53.232;8.252;2024-01-16T03:27:27;100344.53;;;-2.98;100.00
58243;BME280;50118;53.232;8.252;2024-01-16T03:29:53;100351.31;;;-2.94;100.00
58243;BME280;50118;53.232;8.252;2024-01-16T03:32:18;100351.81;;;-3.05;100.00
58243;BME280;50118;53.232;8.252;2024-01-16T03:34:44;100350.88;;;-3.04;100.00
58243;BME280;50118;53.232;8.252;2024-01-16T03:37:09;100351.00;;;-3.07;100.00
58243;BME280;50118;53.232;8.252;2024-01-16T03:39:35;100345.84;;;-2.88;100.00
58243;BME280;50118;53.232;8.252;2024-01-16T03:42:00;100353.94;;;-2.94;100.00
58243;BME280;50118;53.232;8.252;2024-01-16T03:44:26;100349.63;;;-2.95;100.00
58243;BME280;50118;53.232;8.252;2024-01-16T03:46:51;100338.94;;;-2.89;100.00
58243;BME280;50118;53.232;8.252;2024-01-16T03:49:17;100341.28;;;-2.83;100.00
58243;BME280;50118;53.232;8.252;2024-01-16T03:51:42;100341.91;;;-2.77;100.00
58243;BME280;50118;53.232;8.252;2024-01-16T03:54:12;100341.75;;;-2.74;100.00
58243;BME280;50118;53.232;8.252;2024-01-16T03:56:38;100337.38;;;-2.74;100.00
58243;BME280;50118;53.232;8.252;2024-01-16T03:59:04;100342.59;;;-2.74;100.00
58243;BME280;50118;53.232;8.252;2024-01-16T04:01:33;100348.66;;;-2.73;100.00
58243;BME280;50118;53.232;8.252;2024-01-16T04:04:01;100344.56;;;-2.79;100.00
58243;BME280;50118;53.232;8.252;2024-01-16T04:06:26;100338.72;;;-2.84;100.00
58243;BME280;50118;53.232;8.252;2024-01-16T04:08:54;100333.78;;;-2.90;100.00
58243;BME280;50118;53.232;8.252;2024-01-16T04:11:19;100331.44;;;-2.96;100.00
58243;BME280;50118;53.232;8.252;2024-01-16T04:13:46;100337.91;;;-3.05;100.00
58243;BME280;50118;53.232;8.252;2024-01-16T04:16:12;100340.19;;;-2.97;100.00
58243;BME280;50118;53.232;8.252;2024-01-16T04:18:39;100339.47;;;-3.01;100.00
58243;BME280;50118;53.232;8.252;2024-01-16T04:21:05;100336.81;;;-2.99;100.00
58243;BME280;50118;53.232;8.252;2024-01-16T04:23:31;100338.63;;;-3.02;100.00
58243;BME280;50118;53.232;8.252;2024-01-16T04:25:57;100345.03;;;-2.90;100.00
58243;BME280;50118;53.232;8.252;2024-01-16T04:28:23;100339.69;;;-3.06;100.00
58243;BME280;50118;53.232;8.252;2024-01-16T04:30:48;100342.03;;;-2.99;100.00
58243;BME280;50118;53.232;8.252;2024-01-16T04:33:14;100342.16;;;-3.03;100.00
58243;BME280;50118;53.232;8.252;2024-01-16T04:35:39;100345.78;;;-3.07;100.00
58243;BME280;50118;53.232;8.252;2024-01-16T04:38:05;100340.75;;;-3.10;100.00
58243;BME280;50118;53.232;8.252;2024-01-16T04:40:30;100346.22;;;-3.16;100.00
58243;BME280;50118;53.232;8.252;2024-01-16T04:42:56;100346.16;;;-3.14;100.00
58243;BME280;50118;53.232;8.252;2024-01-16T04:45:21;100341.00;;;-3.16;100.00
58243;BME280;50118;53.232;8.252;2024-01-16T04:47:46;100350.38;;;-2.93;100.00
58243;BME280;50118;53.232;8.252;2024-01-16T04:50:12;100361.28;;;-3.04;100.00
58243;BME280;50118;53.232;8.252;2024-01-16T04:52:37;100361.44;;;-3.07;100.00
58243;BME280;50118;53.232;8.252;2024-01-16T04:55:03;100359.47;;;-3.02;100.00
58243;BME280;50118;53.232;8.252;2024-01-16T04:57:29;100351.00;;;-3.07;100.00
58243;BME280;50118;53.232;8.252;2024-01-16T04:59:54;100355.97;;;-3.01;100.00
58243;BME280;50118;53.232;8.252;2024-01-16T05:02:20;100359.53;;;-3.03;100.00
58243;BME280;50118;53.232;8.252;2024-01-16T05:04:45;100351.38;;;-2.95;100.00
58243;BME280;50118;53.232;8.252;2024-01-16T05:07:14;100343.69;;;-2.98;100.00
58243;BME280;50118;53.232;8.252;2024-01-16T05:09:40;100353.28;;;-2.99;100.00
58243;BME280;50118;53.232;8.252;2024-01-16T05:12:05;100348.66;;;-2.92;100.00
58243;BME280;50118;53.232;8.252;2024-01-16T05:14:31;100346.94;;;-2.93;100.00
58243;BME280;50118;53.232;8.252;2024-01-16T05:16:56;100351.47;;;-2.78;100.00
58243;BME280;50118;53.232;8.252;2024-01-16T05:19:22;100372.25;;;-2.76;100.00
58243;BME280;50118;53.232;8.252;2024-01-16T05:21:47;100372.91;;;-2.71;100.00
58243;BME280;50118;53.232;8.252;2024-01-16T05:24:13;100373.19;;;-2.58;100.00
58243;BME280;50118;53.232;8.252;2024-01-16T05:26:38;100366.91;;;-2.54;100.00
58243;BME280;50118;53.232;8.252;2024-01-16T05:29:03;100360.03;;;-2.55;100.00
58243;BME280;50118;53.232;8.252;2024-01-16T05:31:29;100358.94;;;-2.51;100.00
58243;BME280;50118;53.232;8.252;2024-01-16T05:33:54;100349.91;;;-2.44;100.00
58243;BME280;50118;53.232;8.252;2024-01-16T05:36:20;100353.16;;;-2.39;100.00
58243;BME280;50118;53.232;8.252;2024-01-16T05:38:45;100345.63;;;-2.45;100.00
58243;BME280;50118;53.232;8.252;2024-01-16T05:41:11;100349.06;;;-2.45;100.00
58243;BME280;50118;53.232;8.252;2024-01-16T05:43:36;100348.50;;;-2.51;100.00
58243;BME280;50118;53.232;8.252;2024-01-16T05:46:02;100354.44;;;-2.48;100.00
58243;BME280;50118;53.232;8.252;2024-01-16T05:48:27;100368.03;;;-2.41;100.00
58243;BME280;50118;53.232;8.252;2024-01-16T05:50:53;100363.88;;;-2.45;100.00
58243;BME280;50118;53.232;8.252;2024-01-16T05:53:18;100370.00;;;-2.46;100.00
58243;BME280;50118;53.232;8.252;2024-01-16T05:55:44;100363.44;;;-2.36;100.00
58243;BME280;50118;53.232;8.252;2024-01-16T05:58:09;100351.03;;;-2.31;100.00
58243;BME280;50118;53.232;8.252;2024-01-16T06:00:35;100351.72;;;-2.27;100.00
58243;BME280;50118;53.232;8.252;2024-01-16T06:03:00;100343.28;;;-2.32;100.00
58243;BME280;50118;53.232;8.252;2024-01-16T06:05:26;100340.06;;;-2.20;100.00
58243;BME280;50118;53.232;8.252;2024-01-16T06:07:52;100339.38;;;-2.23;100.00
58243;BME280;50118;53.232;8.252;2024-01-16T06:10:17;100348.44;;;-2.31;100.00
58243;BME280;50118;53.232;8.252;2024-01-16T06:12:42;100339.84;;;-2.33;100.00
58243;BME280;50118;53.232;8.252;2024-01-16T06:15:08;100343.88;;;-2.45;100.00
58243;BME280;50118;53.232;8.252;2024-01-16T06:17:35;100339.47;;;-2.44;100.00
58243;BME280;50118;53.232;8.252;2024-01-16T06:20:01;100340.63;;;-2.50;100.00
58243;BME280;50118;53.232;8.252;2024-01-16T06:22:26;100331.72;;;-2.46;100.00
58243;BME280;50118;53.232;8.252;2024-01-16T06:24:52;100332.16;;;-2.55;100.00
58243;BME280;50118;53.232;8.252;2024-01-16T06:27:17;100336.81;;;-2.61;100.00
58243;BME280;50118;53.232;8.252;2024-01-16T06:29:47;100340.06;;;-2.56;100.00
58243;BME280;50118;53.232;8.252;2024-01-16T06:32:13;100328.09;;;-2.60;100.00
58243;BME280;50118;53.232;8.252;2024-01-16T06:34:39;100337.72;;;-2.63;100.00
58243;BME280;50118;53.232;8.252;2024-01-16T06:37:04;100334.34;;;-2.65;100.00
58243;BME280;50118;53.232;8.252;2024-01-16T06:39:30;100334.34;;;-2.65;100.00
58243;BME280;50118;53.232;8.252;2024-01-16T06:41:56;100337.22;;;-2.71;100.00
58243;BME280;50118;53.232;8.252;2024-01-16T06:44:21;100332.94;;;-2.72;100.00
58243;BME280;50118;53.232;8.252;2024-01-16T06:46:47;100336.53;;;-2.74;100.00
58243;BME280;50118;53.232;8.252;2024-01-16T06:49:12;100333.97;;;-2.76;100.00
58243;BME280;50118;53.232;8.252;2024-01-16T06:51:37;100337.66;;;-2.80;100.00
58243;BME280;50118;53.232;8.252;2024-01-16T06:54:03;100343.78;;;-2.81;100.00
58243;BME280;50118;53.232;8.252;2024-01-16T06:56:29;100346.13;;;-2.75;100.00
58243;BME280;50118;53.232;8.252;2024-01-16T06:58:54;100342.44;;;-2.71;100.00
58243;BME280;50118;53.232;8.252;2024-01-16T07:01:20;100342.59;;;-2.74;100.00
58243;BME280;50118;53.232;8.252;2024-01-16T07:03:45;100333.72;;;-2.70;100.00
58243;BME280;50118;53.232;8.252;2024-01-16T07:06:11;100336.97;;;-2.65;100.00
58243;BME280;50118;53.232;8.252;2024-01-16T07:08:37;100340.34;;;-2.63;100.00
58243;BME280;50118;53.232;8.252;2024-01-16T07:11:02;100331.34;;;-2.55;100.00
58243;BME280;50118;53.232;8.252;2024-01-16T07:13:29;100334.56;;;-2.50;100.00
58243;BME280;50118;53.232;8.252;2024-01-16T07:15:54;100328.34;;;-2.48;100.00
58243;BME280;50118;53.232;8.252;2024-01-16T07:18:20;100332.16;;;-2.36;100.00
58243;BME280;50118;53.232;8.252;2024-01-16T07:20:45;100337.34;;;-2.36;100.00
58243;BME280;50118;53.232;8.252;2024-01-16T07:23:12;100348.56;;;-2.34;100.00
58243;BME280;50118;53.232;8.252;2024-01-16T07:25:37;100348.22;;;-2.26;100.00
58243;BME280;50118;53.232;8.252;2024-01-16T07:28:03;100356.25;;;-2.31;100.00
58243;BME280;50118;53.232;8.252;2024-01-16T07:30:28;100361.19;;;-2.24;100.00
58243;BME280;50118;53.232;8.252;2024-01-16T07:32:53;100368.09;;;-2.23;100.00
58243;BME280;50118;53.232;8.252;2024-01-16T07:35:19;100369.94;;;-2.26;100.00
58243;BME280;50118;53.232;8.252;2024-01-16T07:37:44;100369.94;;;-2.26;100.00
58243;BME280;50118;53.232;8.252;2024-01-16T07:40:10;100362.16;;;-2.27;100.00
58243;BME280;50118;53.232;8.252;2024-01-16T07:42:37;100374.31;;;-2.26;100.00
58243;BME280;50118;53.232;8.252;2024-01-16T07:45:03;100372.81;;;-2.32;100.00
58243;BME280;50118;53.232;8.252;2024-01-16T07:47:32;100375.00;;;-2.22;100.00
58243;BME280;50118;53.232;8.252;2024-01-16T07:49:58;100371.56;;;-2.23;100.00
58243;BME280;50118;53.232;8.252;2024-01-16T07:52:25;100374.16;;;-2.23;100.00
58243;BME280;50118;53.232;8.252;2024-01-16T07:54:50;100370.91;;;-2.09;100.00
58243;BME280;50118;53.232;8.252;2024-01-16T07:57:16;100374.28;;;-2.07;100.00
58243;BME280;50118;53.232;8.252;2024-01-16T07:59:41;100381.88;;;-2.02;100.00
58243;BME280;50118;53.232;8.252;2024-01-16T08:02:07;100381.16;;;-2.06;100.00
58243;BME280;50118;53.232;8.252;2024-01-16T08:04:33;100387.81;;;-1.99;100.00
58243;BME280;50118;53.232;8.252;2024-01-16T08:06:59;100383.97;;;-1.92;100.00
58243;BME280;50118;53.232;8.252;2024-01-16T08:09:24;100385.97;;;-1.97;100.00
58243;BME280;50118;53.232;8.252;2024-01-16T08:11:50;100387.97;;;-1.84;100.00
58243;BME280;50118;53.232;8.252;2024-01-16T08:14:15;100380.47;;;-1.91;100.00
58243;BME280;50118;53.232;8.252;2024-01-16T08:16:41;100375.47;;;-1.78;100.00
58243;BME280;50118;53.232;8.252;2024-01-16T08:19:06;100396.97;;;-1.73;100.00
58243;BME280;50118;53.232;8.252;2024-01-16T08:21:32;100398.00;;;-1.75;100.00
58243;BME280;50118;53.232;8.252;2024-01-16T08:23:58;100403.06;;;-1.55;100.00
58243;BME280;50118;53.232;8.252;2024-01-16T08:26:24;100401.50;;;-1.59;100.00
58243;BME280;50118;53.232;8.252;2024-01-16T08:28:49;100405.69;;;-1.55;100.00
58243;BME280;50118;53.232;8.252;2024-01-16T08:31:19;100402.47;;;-1.42;100.00
58243;BME280;50118;53.232;8.252;2024-01-16T08:33:44;100405.63;;;-1.53;100.00
58243;BME280;50118;53.232;8.252;2024-01-16T08:36:10;100394.22;;;-1.52;100.00
58243;BME280;50118;53.232;8.252;2024-01-16T08:38:36;100409.97;;;-1.54;100.00
58243;BME280;50118;53.232;8.252;2024-01-16T08:41:01;100410.28;;;-1.60;100.00
58243;BME280;50118;53.232;8.252;2024-01-16T08:43:31;100414.75;;;-1.44;100.00
58243;BME280;50118;53.232;8.252;2024-01-16T08:45:56;100413.31;;;-1.33;100.00
58243;BME280;50118;53.232;8.252;2024-01-16T08:48:22;100412.63;;;-1.36;100.00
58243;BME280;50118;53.232;8.252;2024-01-16T08:50:47;100417.50;;;-1.30;100.00
58243;BME280;50118;53.232;8.252;2024-01-16T08:53:13;100422.19;;;-1.19;100.00
58243;BME280;50118;53.232;8.252;2024-01-16T08:55:38;100423.28;;;-1.23;100.00
58243;BME280;50118;53.232;8.252;2024-01-16T08:58:04;100425.50;;;-1.16;100.00
58243;BME280;50118;53.232;8.252;2024-01-16T09:00:29;100422.28;;;-1.21;100.00
58243;BME280;50118;53.232;8.252;2024-01-16T09:02:54;100429.19;;;-1.20;100.00
58243;BME280;50118;53.232;8.252;2024-01-16T09:05:20;100433.19;;;-1.13;100.00
58243;BME280;50118;53.232;8.252;2024-01-16T09:07:50;100426.41;;;-0.99;100.00
58243;BME280;50118;53.232;8.252;2024-01-16T09:10:16;100440.09;;;-0.94;100.00
58243;BME280;50118;53.232;8.252;2024-01-16T09:12:42;100435.97;;;-1.16;100.00
58243;BME280;50118;53.232;8.252;2024-01-16T09:15:08;100438.41;;;-0.95;100.00
58243;BME280;50118;53.232;8.252;2024-01-16T09:17:33;100433.97;;;-1.10;100.00
58243;BME280;50118;53.232;8.252;2024-01-16T09:19:59;100436.94;;;-1.01;100.00
58243;BME280;50118;53.232;8.252;2024-01-16T09:22:24;100442.25;;;-1.02;100.00
58243;BME280;50118;53.232;8.252;2024-01-16T09:24:50;100442.44;;;-1.05;100.00
58243;BME280;50118;53.232;8.252;2024-01-16T09:27:15;100440.84;;;-0.92;100.00
58243;BME280;50118;53.232;8.252;2024-01-16T09:29:41;100446.72;;;-0.87;100.00
58243;BME280;50118;53.232;8.252;2024-01-16T09:32:07;100445.19;;;-0.75;100.00
58243;BME280;50118;53.232;8.252;2024-01-16T09:34:32;100442.19;;;-0.67;100.00
58243;BME280;50118;53.232;8.252;2024-01-16T09:36:58;100446.78;;;-0.55;100.00
58243;BME280;50118;53.232;8.252;2024-01-16T09:39:26;100445.25;;;-0.59;100.00
58243;BME280;50118;53.232;8.252;2024-01-16T09:41:51;100450.72;;;-0.30;100.00
58243;BME280;50118;53.232;8.252;2024-01-16T09:44:17;100452.91;;;-0.39;100.00
58243;BME280;50118;53.232;8.252;2024-01-16T09:46:44;100453.19;;;-0.27;100.00
58243;BME280;50118;53.232;8.252;2024-01-16T09:49:12;100456.47;;;-0.08;100.00
58243;BME280;50118;53.232;8.252;2024-01-16T09:51:39;100453.41;;;-0.16;100.00
58243;BME280;50118;53.232;8.252;2024-01-16T09:54:05;100456.47;;;-0.08;100.00
58243;BME280;50118;53.232;8.252;2024-01-16T09:56:35;100458.16;;;0.09;100.00
58243;BME280;50118;53.232;8.252;2024-01-16T09:59:05;100456.13;;;-0.17;100.00
58243;BME280;50118;53.232;8.252;2024-01-16T10:01:32;100454.25;;;-0.31;100.00
58243;BME280;50118;53.232;8.252;2024-01-16T10:03:58;100443.69;;;-0.14;100.00
58243;BME280;50118;53.232;8.252;2024-01-16T10:06:27;100442.44;;;-0.23;100.00
58243;BME280;50118;53.232;8.252;2024-01-16T10:08:53;100438.31;;;-0.11;100.00
58243;BME280;50118;53.232;8.252;2024-01-16T10:11:18;100439.91;;;-0.24;100.00
58243;BME280;50118;53.232;8.252;2024-01-16T10:13:44;100436.78;;;-0.15;100.00
58243;BME280;50118;53.232;8.252;2024-01-16T10:16:10;100434.34;;;0.14;100.00
58243;BME280;50118;53.232;8.252;2024-01-16T10:18:35;100433.31;;;0.32;100.00
58243;BME280;50118;53.232;8.252;2024-01-16T10:21:03;100441.03;;;0.50;100.00
58243;BME280;50118;53.232;8.252;2024-01-16T10:23:30;100435.50;;;0.24;100.00
58243;BME280;50118;53.232;8.252;2024-01-16T10:28:33;100440.88;;;0.37;100.00
58243;BME280;50118;53.232;8.252;2024-01-16T10:31:06;100436.25;;;0.26;100.00
58243;BME280;50118;53.232;8.252;2024-01-16T10:33:32;100439.59;;;0.14;100.00
58243;BME280;50118;53.232;8.252;2024-01-16T10:36:17;100438.00;;;0.42;100.00
58243;BME280;50118;53.232;8.252;2024-01-16T10:38:45;100437.19;;;0.25;100.00
58243;BME280;50118;53.232;8.252;2024-01-16T10:41:17;100444.47;;;0.36;100.00
58243;BME280;50118;53.232;8.252;2024-01-16T10:43:44;100445.78;;;0.27;100.00
58243;BME280;50118;53.232;8.252;2024-01-16T10:46:16;100442.09;;;0.31;100.00
58243;BME280;50118;53.232;8.252;2024-01-16T10:48:59;100441.00;;;0.66;100.00
58243;BME280;50118;53.232;8.252;2024-01-16T10:51:26;100443.59;;;0.35;100.00
58243;BME280;50118;53.232;8.252;2024-01-16T10:53:59;100446.63;;;0.44;100.00
58243;BME280;50118;53.232;8.252;2024-01-16T10:56:27;100450.72;;;0.64;100.00
58243;BME280;50118;53.232;8.252;2024-01-16T10:59:12;100447.78;;;0.54;100.00
58243;BME280;50118;53.232;8.252;2024-01-16T11:01:43;100449.84;;;0.49;100.00
58243;BME280;50118;53.232;8.252;2024-01-16T11:04:12;100446.72;;;0.72;100.00
58243;BME280;50118;53.232;8.252;2024-01-16T11:06:39;100456.41;;;0.56;100.00
58243;BME280;50118;53.232;8.252;2024-01-16T11:09:07;100445.44;;;0.49;100.00
58243;BME280;50118;53.232;8.252;2024-01-16T11:11:34;100452.16;;;0.69;100.00
58243;BME280;50118;53.232;8.252;2024-01-16T11:14:02;100447.00;;;0.38;100.00
58243;BME280;50118;53.232;8.252;2024-01-16T11:16:28;100441.59;;;0.25;100.00
58243;BME280;50118;53.232;8.252;2024-01-16T11:18:55;100446.25;;;0.20;100.00
58243;BME280;50118;53.232;8.252;2024-01-16T11:21:21;100444.81;;;-0.02;100.00
58243;BME280;50118;53.232;8.252;2024-01-16T11:23:47;100442.63;;;-0.10;100.00
58243;BME280;50118;53.232;8.252;2024-01-16T11:28:58;100432.31;;;0.03;100.00
58243;BME280;50118;53.232;8.252;2024-01-16T11:31:34;100437.03;;;0.12;100.00
58243;BME280;50118;53.232;8.252;2024-01-16T11:34:01;100434.25;;;0.15;100.00
58243;BME280;50118;53.232;8.252;2024-01-16T11:36:50;100433.69;;;0.10;100.00
58243;BME280;50118;53.232;8.252;2024-01-16T11:39:25;100437.03;;;-0.04;100.00
58243;BME280;50118;53.232;8.252;2024-01-16T11:41:58;100439.97;;;0.22;100.00
58243;BME280;50118;53.232;8.252;2024-01-16T11:44:44;100439.88;;;0.40;100.00
58243;BME280;50118;53.232;8.252;2024-01-16T11:47:19;100451.16;;;0.26;100.00
58243;BME280;50118;53.232;8.252;2024-01-16T11:49:46;100450.72;;;0.02;100.00
58243;BME280;50118;53.232;8.252;2024-01-16T11:52:12;100445.31;;;0.05;100.00
58243;BME280;50118;53.232;8.252;2024-01-16T11:54:39;100439.59;;;0.14;100.00
58243;BME280;50118;53.232;8.252;2024-01-16T11:58:05;100427.50;;;-0.05;100.00
58243;BME280;50118;53.232;8.252;2024-01-16T12:00:19;100432.47;;;0.16;100.00
58243;BME280;50118;53.232;8.252;2024-01-16T12:05:15;100433.56;;;0.12;100.00
58243;BME280;50118;53.232;8.252;2024-01-16T12:07:49;100427.41;;;0.13;100.00
58243;BME280;50118;53.232;8.252;2024-01-16T12:10:19;100437.97;;;0.11;100.00
58243;BME280;50118;53.232;8.252;2024-01-16T12:12:46;100435.53;;;-0.08;100.00
58243;BME280;50118;53.232;8.252;2024-01-16T12:17:58;100435.19;;;-0.02;100.00
58243;BME280;50118;53.232;8.252;2024-01-16T12:20:26;100433.66;;;-0.06;100.00
58243;BME280;50118;53.232;8.252;2024-01-16T12:22:57;100431.81;;;0.12;100.00
58243;BME280;50118;53.232;8.252;2024-01-16T12:25:24;100414.06;;;0.17;100.00
58243;BME280;50118;53.232;8.252;2024-01-16T12:27:56;100422.69;;;0.04;100.00
58243;BME280;50118;53.232;8.252;2024-01-16T12:30:28;100414.91;;;0.18;100.00
58243;BME280;50118;53.232;8.252;2024-01-16T12:35:37;100408.16;;;0.14;100.00
58243;BME280;50118;53.232;8.252;2024-01-16T12:38:05;100405.81;;;0.40;100.00
58243;BME280;50118;53.232;8.252;2024-01-16T12:40:32;100407.72;;;0.52;100.00
58243;BME280;50118;53.232;8.252;2024-01-16T12:42:57;100401.88;;;0.32;100.00
58243;BME280;50118;53.232;8.252;2024-01-16T12:45:23;100400.22;;;0.46;100.00
58243;BME280;50118;53.232;8.252;2024-01-16T12:47:55;100394.88;;;0.47;100.00
58243;BME280;50118;53.232;8.252;2024-01-16T12:50:24;100404.38;;;0.34;100.00